• Join FlightAware (Why Join?)
  • Login
  • US Flag 
07:34PM EDT


 

Airport Tracker/Info


-or-


 

Live Flight TrackerFlight Track Log ✈ DLX119 ✈ 10-May-2013 ✈ KPRB - KSQL

Flight Track Log - Related Links

Times and Time Zones

All times are in EDT time to prevent confusion due to time zone crossing. See the DLX119 flight status page for this flight to view local times or setup timezone preferences in your user account.

Time Position Orientation Groundspeed Altitude Reporting Facility
EDT Latitude Longitude Course Direction KTS MPH feet Rate Location/Type
04:21PM 35.7442 -120.6550 354° North 146 168 4,300  Level Oakland Center
04:22PM 35.7928 -120.6775 339° North 151 174 6,600 1,980 Climbing Oakland Center
04:23PM 35.8397 -120.6950 343° North 164 189 8,400 1,680 Climbing Oakland Center
04:24PM 35.8875 -120.7136 342° North 174 200 10,100 1,560 Climbing Oakland Center
04:25PM 35.9328 -120.7356 339° North 176 203 11,700 1,320 Climbing Oakland Center
04:26PM 35.9747 -120.7747 323° Northwest 188 216 12,900 1,080 Climbing Oakland Center
04:27PM 36.0383 -120.6485 354° North  Level FlightAware Approximate
04:27PM 36.0175 -120.8147 323° Northwest 194 223 14,000  Level Oakland Center
04:28PM 36.0694 -120.8594 325° Northwest 229 264 14,000  Level Oakland Center
04:29PM 36.1253 -120.9111 323° Northwest 249 287 14,000  Level Oakland Center
04:30PM 36.1944 -120.9708 325° Northwest 255 293 14,000  Level Oakland Center
04:31PM 36.2503 -121.0233 323° Northwest 255 293 14,000  Level Oakland Center
04:32PM 36.3081 -121.0742 325° Northwest 257 296 14,000 -60 Level Oakland Center
04:33PM 36.3653 -121.1253 324° Northwest 256 295 13,900 -60 Descending Oakland Center
04:34PM 36.4231 -121.1789 323° Northwest 260 299 13,900  Level Oakland Center
04:35PM 36.4806 -121.2308 324° Northwest 259 298 13,900  Level Oakland Center
04:36PM 36.5386 -121.2828 324° Northwest 259 298 13,900  Level Oakland Center
04:38PM 36.6078 -121.3450 324° Northwest 259 298 13,900 -180 Level Oakland Center
04:39PM 36.6650 -121.3969 324° Northwest 255 293 13,600 -660 Descending Oakland Center
04:40PM 36.7253 -121.4542 323° Northwest 272 313 12,600 -1,020 Descending Oakland Center
04:41PM 36.7864 -121.5083 325° Northwest 271 312 11,600 -1,020 Descending Oakland Center
04:42PM 36.8506 -121.5664 324° Northwest 269 310 10,500 -1,020 Descending Oakland Center
04:43PM 36.9064 -121.6261 319° Northwest 265 305 9,600 -1,020 Descending Oakland Center
04:44PM 36.9642 -121.6783 324° Northwest 260 299 8,500 -840 Descending Oakland Center
04:45PM 37.0211 -121.7306 324° Northwest 255 293 7,900 -540 Descending Oakland Center
04:46PM 37.0717 -121.7778 323° Northwest 234 269 7,400 -900 Descending Oakland Center
04:47PM 37.1228 -121.8228 325° Northwest 226 260 6,100 -900 Descending Oakland Center
04:48PM 37.1667 -121.8667 321° Northwest 206 237 5,700 -540 Descending Northern Cal TRACON
04:49PM 37.2167 -121.9167 321° Northwest 207 238 5,100 -600 Descending Northern Cal TRACON
04:50PM 37.2628 -121.9733 316° Northwest 206 237 4,500 -300 Descending Oakland Center
04:51PM 37.3056 -122.0197 319° Northwest 204 235 4,500 -300 Level Oakland Center
04:52PM 37.3464 -122.0686 316° Northwest 204 235 3,900 -780 Descending Oakland Center
04:53PM 37.3833 -122.1167 314° West 206 237 3,100 -840 Descending Northern Cal TRACON
04:54PM 37.4167 -122.1667 310° West 191 220 2,500 -480 Descending Northern Cal TRACON
04:54PM 37.4253 -122.1675 356° North 201 231 2,500 -540 Level Oakland Center
04:55PM 37.4603 -122.1894 334° Northwest 162 186 1,800 -840 Descending Oakland Center
04:56PM 37.4903 -122.2247 317° Northwest 135 155 800 -840 Descending Oakland Center
04:57PM 37.5072 -122.2439 318° Northwest 105 121 100 -720 Descending Oakland Center
04:59PM 37.5000 -122.2333 313° West  Level FlightAware Approximate
05:06PM 37.5118 -122.2495 313° West  Level Estimated